createdAt,value
2018-05-16T00:02:12.084Z,20.20
2018-05-16T00:04:39.463Z,22.07
2018-05-16T00:07:06.763Z,23.20
2018-05-16T00:09:34.047Z,20.73
2018-05-16T00:12:01.331Z,22.47
2018-05-16T00:14:28.641Z,25.67
2018-05-16T00:16:55.967Z,23.13
2018-05-16T00:19:23.234Z,21.97
2018-05-16T00:21:50.525Z,22.77
2018-05-16T00:24:17.801Z,21.10
2018-05-16T00:26:45.157Z,26.20
2018-05-16T00:29:12.445Z,23.33
2018-05-16T00:31:39.766Z,20.50
2018-05-16T00:34:07.106Z,21.90
2018-05-16T00:36:34.427Z,21.63
2018-05-16T00:39:01.706Z,19.20
2018-05-16T00:41:29.033Z,21.27
2018-05-16T00:43:56.376Z,20.33
2018-05-16T00:46:23.644Z,23.00
2018-05-16T00:48:50.933Z,19.40
2018-05-16T00:51:24.003Z,20.70
2018-05-16T00:53:51.296Z,22.83
2018-05-16T00:56:18.581Z,23.40
2018-05-16T00:58:45.861Z,19.83
2018-05-16T01:01:13.168Z,23.10
2018-05-16T01:03:40.547Z,21.70
2018-05-16T01:06:07.920Z,22.93
2018-05-16T01:08:35.306Z,21.70
2018-05-16T01:11:02.613Z,21.00
2018-05-16T01:13:29.910Z,21.40
2018-05-16T01:15:57.216Z,19.50
2018-05-16T01:18:24.522Z,18.30
2018-05-16T01:20:51.798Z,23.17
2018-05-16T01:23:19.069Z,23.37
2018-05-16T01:25:46.945Z,20.83
2018-05-16T01:28:14.226Z,25.97
2018-05-16T01:30:41.573Z,24.80
2018-05-16T01:33:08.926Z,24.17
2018-05-16T01:35:36.282Z,23.17
2018-05-16T01:38:03.573Z,20.17
2018-05-16T01:40:30.848Z,26.03
2018-05-16T01:42:58.143Z,24.13
2018-05-16T01:45:25.518Z,24.10
2018-05-16T01:47:52.805Z,25.50
2018-05-16T01:50:20.078Z,21.27
2018-05-16T01:52:47.373Z,21.50
2018-05-16T01:55:14.657Z,22.47
2018-05-16T01:57:41.957Z,26.27
2018-05-16T02:00:09.336Z,23.70
2018-05-16T02:02:36.658Z,32.83
2018-05-16T02:05:03.967Z,24.30
2018-05-16T02:07:31.309Z,22.90
2018-05-16T02:09:58.632Z,31.20
2018-05-16T02:12:25.947Z,24.57
2018-05-16T02:14:53.269Z,24.30
2018-05-16T02:17:20.549Z,28.77
2018-05-16T02:19:47.854Z,27.23
2018-05-16T02:22:15.129Z,26.93
2018-05-16T02:24:42.415Z,25.80
2018-05-16T02:27:09.743Z,27.10
2018-05-16T02:29:37.073Z,26.00
2018-05-16T02:32:04.664Z,26.13
2018-05-16T02:34:32.007Z,30.40
2018-05-16T02:36:59.377Z,23.70
2018-05-16T02:39:26.672Z,27.00
2018-05-16T02:41:53.950Z,28.40
2018-05-16T02:44:21.248Z,26.30
2018-05-16T02:46:48.528Z,26.53
2018-05-16T02:49:15.862Z,25.03
2018-05-16T02:51:43.139Z,25.60
2018-05-16T02:54:10.484Z,28.30
2018-05-16T02:56:37.849Z,27.47
2018-05-16T02:59:05.229Z,25.63
2018-05-16T03:01:32.540Z,23.87
2018-05-16T03:04:00.171Z,26.03
2018-05-16T03:06:27.538Z,30.47
2018-05-16T03:08:54.823Z,30.33
2018-05-16T03:11:22.110Z,26.40
2018-05-16T03:13:49.429Z,26.20
2018-05-16T03:16:16.699Z,28.50
2018-05-16T03:18:44.006Z,29.90
2018-05-16T03:21:11.313Z,26.97
2018-05-16T03:23:38.755Z,27.07
2018-05-16T03:26:06.124Z,28.77
2018-05-16T03:28:33.405Z,27.97
2018-05-16T03:31:00.664Z,27.13
2018-05-16T03:33:28.022Z,27.50
2018-05-16T03:35:55.383Z,31.60
2018-05-16T03:38:22.645Z,24.70
2018-05-16T03:40:49.945Z,28.40
2018-05-16T03:43:17.267Z,29.23
2018-05-16T03:45:44.557Z,26.80
2018-05-16T03:48:11.894Z,38.03
2018-05-16T03:50:39.186Z,24.57
2018-05-16T03:53:06.525Z,34.60
2018-05-16T03:55:33.818Z,28.10
2018-05-16T03:58:15.778Z,36.33
2018-05-16T04:00:49.054Z,26.40
2018-05-16T04:03:22.108Z,25.00
2018-05-16T04:05:49.395Z,25.17
2018-05-16T04:08:30.886Z,29.70
2018-05-16T04:10:58.183Z,26.60
2018-05-16T04:13:25.564Z,30.97
2018-05-16T04:15:52.793Z,28.20
2018-05-16T04:18:20.088Z,30.10
2018-05-16T04:20:47.382Z,26.70
2018-05-16T04:23:14.653Z,30.73
2018-05-16T04:25:41.969Z,27.10
2018-05-16T04:28:09.253Z,29.00
2018-05-16T04:30:36.747Z,33.20
2018-05-16T04:33:04.026Z,32.73
2018-05-16T04:35:31.326Z,26.50
2018-05-16T04:37:58.644Z,30.40
2018-05-16T04:40:25.924Z,34.43
2018-05-16T04:42:53.218Z,27.50
2018-05-16T04:45:20.501Z,28.63
2018-05-16T04:47:47.793Z,34.07
2018-05-16T04:50:15.073Z,26.80
2018-05-16T04:52:42.429Z,28.67
2018-05-16T04:55:09.776Z,23.80
2018-05-16T04:57:37.098Z,27.10
2018-05-16T05:00:04.461Z,29.43
2018-05-16T05:02:32.013Z,27.60
2018-05-16T05:04:59.285Z,27.30
2018-05-16T05:07:26.591Z,26.63
2018-05-16T05:09:53.888Z,28.40
2018-05-16T05:12:21.185Z,28.17
2018-05-16T05:14:49.550Z,29.87
2018-05-16T05:17:17.365Z,31.97
2018-05-16T05:19:44.668Z,31.60
2018-05-16T05:22:11.992Z,28.43
2018-05-16T05:24:39.342Z,31.00
2018-05-16T05:27:06.668Z,32.80
2018-05-16T05:29:33.956Z,29.63
2018-05-16T05:32:04.022Z,31.60
2018-05-16T05:34:31.305Z,29.73
2018-05-16T05:36:58.701Z,32.30
2018-05-16T05:39:26.677Z,32.70
2018-05-16T05:41:53.952Z,36.13
2018-05-16T05:44:22.024Z,33.17
2018-05-16T05:46:49.356Z,35.87
2018-05-16T05:49:16.740Z,36.77
2018-05-16T05:51:44.010Z,32.37
2018-05-16T05:54:11.308Z,32.43
2018-05-16T05:56:38.839Z,34.80
2018-05-16T05:59:06.293Z,38.40
2018-05-16T06:01:33.609Z,39.60
2018-05-16T06:04:00.896Z,41.07
2018-05-16T06:06:28.241Z,31.87
2018-05-16T06:08:55.547Z,36.23
2018-05-16T06:11:22.829Z,39.27
2018-05-16T06:13:50.123Z,36.13
2018-05-16T06:16:17.401Z,35.57
2018-05-16T06:18:44.784Z,30.60
2018-05-16T06:21:12.094Z,36.23
2018-05-16T06:23:39.484Z,33.80
2018-05-16T06:26:06.790Z,30.10
2018-05-16T06:28:34.077Z,29.03
2018-05-16T06:31:01.385Z,33.70
2018-05-16T06:33:28.657Z,32.13
2018-05-16T06:35:56.005Z,28.77
2018-05-16T06:38:23.292Z,33.73
2018-05-16T06:40:50.582Z,34.33
2018-05-16T06:43:17.893Z,29.43
2018-05-16T06:45:45.211Z,32.17
2018-05-16T06:48:12.510Z,30.87
2018-05-16T06:50:39.817Z,36.60
2018-05-16T06:53:07.295Z,32.50
2018-05-16T06:55:34.691Z,34.60
2018-05-16T06:58:01.997Z,30.83
2018-05-16T07:00:29.510Z,31.23
2018-05-16T07:02:56.826Z,32.53
2018-05-16T07:05:24.159Z,42.43
2018-05-16T07:07:51.466Z,32.97
2018-05-16T07:10:18.753Z,28.30
2018-05-16T07:12:46.056Z,31.50
2018-05-16T07:15:13.350Z,29.23
2018-05-16T07:17:40.681Z,30.93
2018-05-16T07:20:08.904Z,25.67
2018-05-16T07:22:36.253Z,28.40
2018-05-16T07:25:03.532Z,27.43
2018-05-16T07:27:30.812Z,28.57
2018-05-16T07:29:58.097Z,26.70
2018-05-16T07:32:25.449Z,22.57
2018-05-16T07:34:52.661Z,24.43
2018-05-16T07:37:19.965Z,22.80
2018-05-16T07:39:47.244Z,26.60
2018-05-16T07:42:14.533Z,21.50
2018-05-16T07:44:41.885Z,19.77
2018-05-16T07:47:09.235Z,22.20
2018-05-16T07:49:36.581Z,19.83
2018-05-16T07:52:03.857Z,18.53
2018-05-16T07:54:31.185Z,33.93
2018-05-16T07:56:58.493Z,19.30
2018-05-16T07:59:25.823Z,21.03
2018-05-16T08:01:53.106Z,24.87
2018-05-16T08:04:20.387Z,30.80
2018-05-16T08:06:47.684Z,26.73
2018-05-16T08:09:15.357Z,22.90
2018-05-16T08:11:42.678Z,18.50
2018-05-16T08:14:09.980Z,19.37
2018-05-16T08:16:37.331Z,19.33
2018-05-16T08:19:04.865Z,29.00
2018-05-16T08:21:32.165Z,20.17
2018-05-16T08:23:59.465Z,25.23
2018-05-16T08:26:26.769Z,23.40
2018-05-16T08:28:54.064Z,19.07
2018-05-16T08:31:21.349Z,21.03
2018-05-16T08:33:48.628Z,19.63
2018-05-16T08:36:15.913Z,20.97
2018-05-16T08:38:43.295Z,20.93
2018-05-16T08:41:10.625Z,37.83
2018-05-16T08:43:37.921Z,25.70
2018-05-16T08:46:05.342Z,16.97
2018-05-16T08:48:32.677Z,20.27
2018-05-16T08:50:59.929Z,19.50
2018-05-16T08:53:27.269Z,20.17
2018-05-16T08:55:54.553Z,20.47
2018-05-16T08:58:21.829Z,20.23
2018-05-16T09:00:49.120Z,33.57
2018-05-16T09:03:16.397Z,47.00
2018-05-16T09:05:43.699Z,45.87
2018-05-16T09:08:11.046Z,22.47
2018-05-16T09:10:38.388Z,21.83
2018-05-16T09:13:05.764Z,20.90
2018-05-16T09:15:33.053Z,18.77
2018-05-16T09:18:00.357Z,18.43
2018-05-16T09:20:27.663Z,19.23
2018-05-16T09:22:55.814Z,21.90
2018-05-16T09:25:23.074Z,13.83
2018-05-16T09:27:50.357Z,13.93
2018-05-16T09:30:17.642Z,14.80
2018-05-16T09:32:44.932Z,13.70
2018-05-16T09:35:12.238Z,14.13
2018-05-16T09:37:39.562Z,14.90
2018-05-16T09:40:06.946Z,15.00
2018-05-16T09:42:34.254Z,66.60
2018-05-16T09:45:01.582Z,18.63
2018-05-16T09:47:28.969Z,19.30
2018-05-16T09:49:56.274Z,11.80
2018-05-16T09:52:23.561Z,12.37
2018-05-16T09:54:50.850Z,15.20
2018-05-16T09:57:18.161Z,10.90
2018-05-16T09:59:45.420Z,10.63
2018-05-16T10:02:12.739Z,10.33
2018-05-16T10:04:40.052Z,12.40
2018-05-16T10:07:07.395Z,12.43
2018-05-16T10:09:34.736Z,11.40
2018-05-16T10:12:02.030Z,22.83
2018-05-16T10:14:29.321Z,12.67
2018-05-16T10:16:56.752Z,11.30
2018-05-16T10:19:23.950Z,10.07
2018-05-16T10:21:51.553Z,11.03
2018-05-16T10:24:18.829Z,11.47
2018-05-16T10:26:46.103Z,11.57
2018-05-16T10:29:13.413Z,9.80
2018-05-16T10:31:40.736Z,11.60
2018-05-16T10:34:08.103Z,10.07
2018-05-16T10:36:35.467Z,12.10
2018-05-16T10:39:02.726Z,11.70
2018-05-16T10:41:30.125Z,11.10
2018-05-16T10:43:57.340Z,11.93
2018-05-16T10:46:24.626Z,12.83
2018-05-16T10:48:51.912Z,11.00
2018-05-16T10:51:19.198Z,10.97
2018-05-16T10:53:46.484Z,34.43
2018-05-16T10:56:13.754Z,15.40
2018-05-16T10:58:41.080Z,21.30
2018-05-16T11:01:08.490Z,11.30
2018-05-16T11:03:35.875Z,9.50
2018-05-16T11:06:03.143Z,7.73
2018-05-16T11:08:30.431Z,16.53
2018-05-16T11:10:57.763Z,5.77
2018-05-16T11:13:25.034Z,12.50
2018-05-16T11:15:52.317Z,8.50
2018-05-16T11:18:19.577Z,9.33
2018-05-16T11:20:46.858Z,7.57
2018-05-16T11:23:14.122Z,6.57
2018-05-16T11:25:41.490Z,9.30
2018-05-16T11:28:08.897Z,7.93
2018-05-16T11:30:36.259Z,12.80
2018-05-16T11:33:03.537Z,10.60
2018-05-16T11:35:30.823Z,9.03
2018-05-16T11:37:58.197Z,10.77
2018-05-16T11:40:25.467Z,8.97
2018-05-16T11:42:53.508Z,8.97
2018-05-16T11:45:20.836Z,10.07
2018-05-16T11:47:48.080Z,10.70
2018-05-16T11:50:15.334Z,6.73
2018-05-16T11:52:42.646Z,6.33
2018-05-16T11:55:09.963Z,4.90
2018-05-16T11:57:37.327Z,7.60
2018-05-16T12:00:04.647Z,5.03
2018-05-16T12:02:31.918Z,5.57
2018-05-16T12:04:59.208Z,5.37
2018-05-16T12:07:26.530Z,6.27
2018-05-16T12:09:53.843Z,5.43
2018-05-16T12:12:21.113Z,6.97
2018-05-16T12:14:48.401Z,5.37
2018-05-16T12:17:15.668Z,8.03
2018-05-16T12:19:43.017Z,9.13
2018-05-16T12:22:10.348Z,3.90
2018-05-16T12:24:37.656Z,4.63
2018-05-16T12:27:05.017Z,6.50
2018-05-16T12:29:32.292Z,5.67
2018-05-16T12:31:59.578Z,9.93
2018-05-16T12:34:26.925Z,3.57
2018-05-16T12:36:54.240Z,4.00
2018-05-16T12:39:21.535Z,6.20
2018-05-16T12:41:48.789Z,5.90
2018-05-16T12:44:16.081Z,3.73
2018-05-16T12:46:43.443Z,6.10
2018-05-16T12:49:10.692Z,4.07
2018-05-16T12:51:38.069Z,5.13
2018-05-16T12:54:05.413Z,3.70
2018-05-16T12:56:32.670Z,8.10
2018-05-16T12:58:59.953Z,4.83
2018-05-16T13:01:27.298Z,4.30
2018-05-16T13:03:54.621Z,5.03
2018-05-16T13:08:55.478Z,4.80
2018-05-16T13:11:22.731Z,5.00
2018-05-16T13:13:49.999Z,6.60
2018-05-16T13:16:17.280Z,5.40
2018-05-16T13:18:44.554Z,8.67
2018-05-16T13:21:11.922Z,8.00
2018-05-16T13:23:39.258Z,7.77
2018-05-16T13:26:06.620Z,7.33
2018-05-16T13:28:33.897Z,7.10
2018-05-16T13:31:01.157Z,7.63
2018-05-16T13:33:28.461Z,6.47
2018-05-16T13:35:55.787Z,4.50
2018-05-16T13:38:23.081Z,7.80
2018-05-16T13:40:50.351Z,7.70
2018-05-16T13:43:17.618Z,4.23
2018-05-16T13:45:44.877Z,9.60
2018-05-16T13:48:12.169Z,6.23
2018-05-16T13:50:39.585Z,5.50
2018-05-16T13:53:06.949Z,5.43
2018-05-16T13:55:34.220Z,6.83
2018-05-16T13:58:01.514Z,5.63
2018-05-16T14:00:28.817Z,5.60
2018-05-16T14:02:56.117Z,6.67
2018-05-16T14:05:23.400Z,8.40
2018-05-16T14:07:50.881Z,7.33
2018-05-16T14:10:18.160Z,8.90
2018-05-16T14:12:45.443Z,5.50
2018-05-16T14:15:12.792Z,6.57
2018-05-16T14:17:40.066Z,9.60
2018-05-16T14:20:07.428Z,8.77
2018-05-16T14:22:34.683Z,8.67
2018-05-16T14:25:01.932Z,12.03
2018-05-16T14:27:29.213Z,8.53
2018-05-16T14:29:56.578Z,8.67
2018-05-16T14:32:23.856Z,9.53
2018-05-16T14:34:51.141Z,8.57
2018-05-16T14:37:18.419Z,14.43
2018-05-16T14:39:45.693Z,11.47
2018-05-16T14:42:12.995Z,10.80
2018-05-16T14:44:41.166Z,10.23
2018-05-16T14:47:08.523Z,10.20
2018-05-16T14:49:35.842Z,10.00
2018-05-16T14:52:03.124Z,9.37
2018-05-16T14:54:30.415Z,8.27
2018-05-16T14:56:57.717Z,13.47
2018-05-16T14:59:24.985Z,8.67
2018-05-16T15:01:52.291Z,7.23
2018-05-16T15:04:19.565Z,6.40
2018-05-16T15:06:46.842Z,8.53
2018-05-16T15:09:14.128Z,5.80
2018-05-16T15:11:41.450Z,8.53
2018-05-16T15:14:08.828Z,6.50
2018-05-16T15:16:36.217Z,7.07
2018-05-16T15:19:03.498Z,7.50
2018-05-16T15:21:30.764Z,8.10
2018-05-16T15:23:58.049Z,17.10
2018-05-16T15:26:25.350Z,8.17
2018-05-16T15:28:52.957Z,12.10
2018-05-16T15:31:20.236Z,8.13
2018-05-16T15:33:47.496Z,8.43
2018-05-16T15:36:14.770Z,8.90
2018-05-16T15:38:42.086Z,9.37
2018-05-16T15:41:09.444Z,10.43
2018-05-16T15:43:36.863Z,9.70
2018-05-16T15:46:04.151Z,11.10
2018-05-16T15:48:31.406Z,10.83
2018-05-16T15:50:58.793Z,12.00
2018-05-16T15:53:26.121Z,10.23
2018-05-16T15:55:53.405Z,14.33
2018-05-16T15:58:20.685Z,12.57
2018-05-16T16:00:47.974Z,15.50
2018-05-16T16:03:15.276Z,16.93
2018-05-16T16:05:42.642Z,17.13
2018-05-16T16:08:10.002Z,15.37
2018-05-16T16:10:37.333Z,12.97
2018-05-16T16:13:04.688Z,6.53
2018-05-16T16:15:31.993Z,6.10
2018-05-16T16:17:59.327Z,10.03
2018-05-16T16:20:26.605Z,5.60
2018-05-16T16:22:53.873Z,9.80
2018-05-16T16:25:21.142Z,5.70
2018-05-16T16:27:48.422Z,5.83
2018-05-16T16:30:15.775Z,6.80
2018-05-16T16:32:43.156Z,7.33
2018-05-16T16:35:10.416Z,6.07
2018-05-16T16:37:37.821Z,5.80
2018-05-16T16:40:05.171Z,6.47
2018-05-16T16:42:32.439Z,7.10
2018-05-16T16:44:59.721Z,7.63
2018-05-16T16:47:27.037Z,5.60
2018-05-16T16:49:54.313Z,12.93
2018-05-16T16:52:21.598Z,6.30
2018-05-16T16:54:48.870Z,7.30
2018-05-16T16:57:16.557Z,6.80
2018-05-16T16:59:43.824Z,5.63
2018-05-16T17:02:11.162Z,5.77
2018-05-16T17:04:38.579Z,7.13
2018-05-16T17:07:05.970Z,9.20
2018-05-16T17:09:33.293Z,7.43
2018-05-16T17:12:00.564Z,9.40
2018-05-16T17:14:27.849Z,7.20
2018-05-16T17:16:55.139Z,7.57
2018-05-16T17:19:22.431Z,7.20
2018-05-16T17:21:49.686Z,9.00
2018-05-16T17:24:16.961Z,7.80
2018-05-16T17:26:44.280Z,11.80
2018-05-16T17:29:12.430Z,10.03
2018-05-16T17:31:43.697Z,21.87
2018-05-16T17:34:11.157Z,7.67
2018-05-16T17:36:38.701Z,7.93
2018-05-16T17:39:06.491Z,12.87
2018-05-16T17:41:33.893Z,9.93
2018-05-16T17:44:01.314Z,18.60
2018-05-16T17:46:28.658Z,11.63
2018-05-16T17:48:56.034Z,13.03
2018-05-16T17:51:23.322Z,9.50
2018-05-16T17:53:50.713Z,8.67
2018-05-16T17:56:17.914Z,13.53
2018-05-16T17:58:45.225Z,10.13
2018-05-16T18:01:13.421Z,9.57
2018-05-16T18:03:40.754Z,11.53
2018-05-16T18:06:08.286Z,11.40
2018-05-16T18:08:35.957Z,9.10
2018-05-16T18:11:03.329Z,7.30
2018-05-16T18:13:47.359Z,7.40
2018-05-16T18:16:33.296Z,9.33
2018-05-16T18:19:00.568Z,11.37
2018-05-16T18:21:27.882Z,10.83
2018-05-16T18:23:55.207Z,12.60
2018-05-16T18:26:22.528Z,8.17
2018-05-16T18:28:49.805Z,13.07
2018-05-16T18:31:17.117Z,10.73
2018-05-16T18:33:44.683Z,12.57
2018-05-16T18:36:12.095Z,12.30
2018-05-16T18:38:42.547Z,9.37
2018-05-16T18:41:10.031Z,14.93
2018-05-16T18:43:37.456Z,10.47
2018-05-16T18:46:04.823Z,10.13
2018-05-16T18:48:32.326Z,8.53
2018-05-16T18:50:59.685Z,9.80
2018-05-16T18:53:26.987Z,12.87
2018-05-16T18:55:54.322Z,16.73
2018-05-16T18:58:21.590Z,11.80
2018-05-16T19:00:48.943Z,19.50
2018-05-16T19:03:16.404Z,12.83
2018-05-16T19:05:43.939Z,10.63
2018-05-16T19:08:11.556Z,13.17
2018-05-16T19:10:39.208Z,12.30
2018-05-16T19:13:06.785Z,14.50
2018-05-16T19:15:34.151Z,18.47
2018-05-16T19:18:02.383Z,14.27
2018-05-16T19:20:29.746Z,12.63
2018-05-16T19:22:57.085Z,16.23
2018-05-16T19:25:24.406Z,14.93
2018-05-16T19:27:51.719Z,15.90
2018-05-16T19:30:19.918Z,12.50
2018-05-16T19:32:47.447Z,17.40
2018-05-16T19:35:14.809Z,18.90
2018-05-16T19:37:42.847Z,13.73
2018-05-16T19:40:10.291Z,15.63
2018-05-16T19:42:37.666Z,17.73
2018-05-16T19:45:05.079Z,18.67
2018-05-16T19:47:32.583Z,17.13
2018-05-16T19:49:59.914Z,20.70
2018-05-16T19:52:27.288Z,22.03
2018-05-16T19:54:54.673Z,20.13
2018-05-16T19:57:22.053Z,21.47
2018-05-16T19:59:49.740Z,20.07
2018-05-16T20:02:17.059Z,22.07
2018-05-16T20:04:44.386Z,21.83
2018-05-16T20:07:11.813Z,22.33
2018-05-16T20:09:39.286Z,20.90
2018-05-16T20:12:06.757Z,25.10
2018-05-16T20:14:34.508Z,22.07
2018-05-16T20:17:01.798Z,20.87
2018-05-16T20:19:29.125Z,26.83
2018-05-16T20:21:56.479Z,24.00
2018-05-16T20:24:23.781Z,26.53
2018-05-16T20:26:51.105Z,23.37
2018-05-16T20:29:18.459Z,23.20
2018-05-16T20:31:45.707Z,27.00
2018-05-16T20:34:13.050Z,28.60
2018-05-16T20:36:40.542Z,31.40
2018-05-16T20:39:08.072Z,26.80
2018-05-16T20:41:35.808Z,23.30
2018-05-16T20:44:03.898Z,24.07
2018-05-16T20:46:31.308Z,24.63
2018-05-16T20:48:58.746Z,26.47
2018-05-16T20:51:26.106Z,27.90
2018-05-16T20:53:53.435Z,26.03
2018-05-16T20:56:20.770Z,25.60
2018-05-16T20:58:48.080Z,26.17
2018-05-16T21:01:15.395Z,26.50
2018-05-16T21:03:42.674Z,26.33
2018-05-16T21:06:10.005Z,31.40
2018-05-16T21:08:37.406Z,30.10
2018-05-16T21:11:04.730Z,28.90
2018-05-16T21:13:32.071Z,28.27
2018-05-16T21:15:59.370Z,29.93
2018-05-16T21:18:26.674Z,31.27
2018-05-16T21:20:54.006Z,32.30
2018-05-16T21:25:55.190Z,31.90
2018-05-16T21:28:22.489Z,29.07
2018-05-16T21:30:49.812Z,30.03
2018-05-16T21:33:17.122Z,31.07
2018-05-16T21:35:44.423Z,26.40
2018-05-16T21:38:11.831Z,26.33
2018-05-16T21:40:39.233Z,30.87
2018-05-16T21:43:07.067Z,31.13
2018-05-16T21:45:34.400Z,28.73
2018-05-16T21:48:01.706Z,33.63
2018-05-16T21:50:29.022Z,33.73
2018-05-16T21:52:56.478Z,34.93
2018-05-16T21:55:23.782Z,30.50
2018-05-16T21:57:51.109Z,32.50
2018-05-16T22:00:18.413Z,29.50
2018-05-16T22:02:46.069Z,30.07
2018-05-16T22:05:13.666Z,26.37
2018-05-16T22:07:41.048Z,29.47
2018-05-16T22:10:08.477Z,27.70
2018-05-16T22:12:36.136Z,33.13
2018-05-16T22:15:03.505Z,32.93
2018-05-16T22:17:30.798Z,34.07
2018-05-16T22:19:58.132Z,33.80
2018-05-16T22:22:25.488Z,35.30
2018-05-16T22:24:52.810Z,30.07
2018-05-16T22:27:20.159Z,30.40
2018-05-16T22:29:47.626Z,29.97
2018-05-16T22:32:20.694Z,37.23
2018-05-16T22:34:53.546Z,35.43
2018-05-16T22:37:26.613Z,34.10
2018-05-16T22:39:59.595Z,34.10
2018-05-16T22:42:29.247Z,32.37
2018-05-16T22:44:59.554Z,30.67
2018-05-16T22:47:26.904Z,30.90
2018-05-16T22:49:54.203Z,32.67
2018-05-16T22:52:21.505Z,33.00
2018-05-16T22:54:48.780Z,29.73
2018-05-16T22:57:16.062Z,29.57
2018-05-16T23:02:17.130Z,26.63
2018-05-16T23:04:44.452Z,27.30
2018-05-16T23:07:11.844Z,29.13
2018-05-16T23:09:39.170Z,29.67
2018-05-16T23:12:06.785Z,24.40
2018-05-16T23:14:34.105Z,26.20
2018-05-16T23:17:01.965Z,31.30
2018-05-16T23:19:29.435Z,25.50
2018-05-16T23:21:56.908Z,27.17
2018-05-16T23:24:24.233Z,29.23
2018-05-16T23:26:51.511Z,25.67
2018-05-16T23:29:18.801Z,33.07
2018-05-16T23:31:46.078Z,29.83
2018-05-16T23:34:13.449Z,26.10
2018-05-16T23:36:40.986Z,31.10
2018-05-16T23:39:08.443Z,26.57
2018-05-16T23:41:36.584Z,23.03
2018-05-16T23:44:03.869Z,23.53
2018-05-16T23:46:31.173Z,24.07
2018-05-16T23:48:58.462Z,27.40
2018-05-16T23:51:25.755Z,23.30
2018-05-16T23:53:53.049Z,22.37
2018-05-16T23:56:20.344Z,24.73
2018-05-16T23:58:47.667Z,22.00
